Hamlet, North Carolina
Current Conditions -  °F | °C
As of 4:56 AM on Tuesday 27 Jan 2015 (Local Time) from KHFF Reporting Station
Broken Clouds Broken Clouds  
Wind Chill: 31°   Ceiling: 4000
Heat Index: 37°   Visibility: 10mi
Dew Point: 25°   Wind: 7mph
Humidity: 64%   Direction: 320°NW
Pressure: 29.77"   Gusts: NA
Location:  34.89°N, 79.7°W
Report Text: KHFF 270956Z AUTO 32006KT 10SM BKN040 BKN075 03/M04 A2977 RMK AO2 SLP085 T00251037
Loading
Personal Weather Stations






























Interactive Weather Map New forecast layout! Learn more

10-Day Weather Forecast

Advertisements
Track Severe Weather on mobile